Time;durP1;ratioP1;P1;durP2;ratioP2;P2;SDS_P1;SDS_P2;PMS_P1;PMS_P2;Temp;Humidity;BMP_temperature;BMP_pressure;BME280_temperature;BME280_humidity;BME280_pressure;Samples;Min_cycle;Max_cycle;Signal;HPM_P1;HPM_P2
2020/12/27 00:02:10;;;;;;;7.63;4.10;;;;;;;3.70;73.43;93910.16;5014499;28;20036;-78
2020/12/27 00:04:37;;;;;;;8.77;3.95;;;;;;;3.66;73.68;93903.06;5013132;28;20018;-79
2020/12/27 00:07:09;;;;;;;6.38;3.85;;;;;;;3.62;74.06;93905.44;5013134;28;20022;-79
2020/12/27 00:09:39;;;;;;;13.20;4.45;;;;;;;3.55;74.39;93902.31;5014207;28;20026;-78
2020/12/27 00:12:06;;;;;;;10.38;4.57;;;;;;;3.56;74.68;93909.97;5013208;28;20029;-79
2020/12/27 00:14:32;;;;;;;9.02;5.15;;;;;;;3.57;74.77;93902.84;5007745;28;20137;-79
2020/12/27 00:17:03;;;;;;;9.77;4.68;;;;;;;3.60;74.90;93910.19;5014314;28;20206;-79
2020/12/27 00:19:29;;;;;;;9.93;4.15;;;;;;;3.60;74.82;93908.38;5014092;28;20029;-78
2020/12/27 00:21:54;;;;;;;11.25;4.43;;;;;;;3.57;74.68;93903.63;5012998;28;20037;-80
2020/12/27 00:24:20;;;;;;;8.00;4.22;;;;;;;3.57;74.61;93908.91;5013936;28;20693;-78
2020/12/27 00:26:45;;;;;;;9.85;4.40;;;;;;;3.54;74.92;93908.63;5012759;28;20014;-79
2020/12/27 00:29:11;;;;;;;10.15;4.60;;;;;;;3.55;74.88;93904.94;5012657;28;20055;-78
2020/12/27 00:31:36;;;;;;;9.75;4.82;;;;;;;3.57;74.96;93902.84;5013950;28;20378;-79
2020/12/27 00:34:02;;;;;;;10.50;4.53;;;;;;;3.56;74.72;93899.41;5013821;28;20029;-79
2020/12/27 00:36:27;;;;;;;11.82;4.75;;;;;;;3.62;74.37;93894.91;5012435;28;20452;-79
2020/12/27 00:38:53;;;;;;;12.70;5.18;;;;;;;3.65;74.52;93897.00;5012431;28;20034;-79
2020/12/27 00:41:23;;;;;;;11.95;5.40;;;;;;;3.66;74.40;93895.94;5012498;28;20037;-78
2020/12/27 00:43:49;;;;;;;26.85;7.75;;;;;;;3.70;74.56;93902.25;5013641;28;20038;-79
2020/12/27 00:46:14;;;;;;;20.40;7.25;;;;;;;3.80;74.57;93894.31;5013863;28;20022;-79
2020/12/27 00:48:40;;;;;;;27.98;8.13;;;;;;;3.85;74.07;93892.72;5012604;28;20022;-79
2020/12/27 00:51:06;;;;;;;30.55;9.73;;;;;;;3.90;72.99;93900.63;5013813;28;20061;-79
2020/12/27 00:53:31;;;;;;;25.33;9.27;;;;;;;3.95;72.90;93892.69;5012269;28;20034;-79
2020/12/27 00:55:57;;;;;;;24.00;8.45;;;;;;;4.00;72.94;93896.09;5012330;28;20481;-79
2020/12/27 00:58:22;;;;;;;17.52;6.97;;;;;;;4.04;72.80;93896.34;5012236;28;20477;-78
2020/12/27 01:00:47;;;;;;;20.40;8.02;;;;;;;4.07;72.83;93895.00;5012332;28;20113;-78
2020/12/27 01:03:13;;;;;;;24.40;7.78;;;;;;;4.11;73.22;93896.84;5011551;28;20026;-78
2020/12/27 01:05:38;;;;;;;21.73;7.82;;;;;;;4.16;73.06;93894.16;5011939;28;20037;-79
2020/12/27 01:08:04;;;;;;;17.48;6.25;;;;;;;4.19;72.92;93891.00;5013450;28;20018;-79
2020/12/27 01:10:29;;;;;;;17.52;7.15;;;;;;;4.20;72.78;93892.56;5012008;28;20091;-79
2020/12/27 01:12:55;;;;;;;16.60;6.95;;;;;;;4.24;72.40;93892.81;5012018;28;20028;-79
2020/12/27 01:15:20;;;;;;;14.55;6.28;;;;;;;4.29;72.86;93887.50;5013555;28;20026;-79
2020/12/27 01:17:46;;;;;;;13.88;6.93;;;;;;;4.31;72.87;93884.59;5011789;28;20026;-80
2020/12/27 01:20:11;;;;;;;19.17;8.32;;;;;;;4.32;73.13;93891.47;5011908;28;20060;-79
2020/12/27 01:22:36;;;;;;;14.75;6.82;;;;;;;4.35;73.15;93886.41;5011618;28;20034;-79
2020/12/27 01:25:02;;;;;;;16.67;6.45;;;;;;;4.37;73.32;93888.78;5012072;28;20030;-79
2020/12/27 01:27:27;;;;;;;12.95;5.90;;;;;;;4.38;73.12;93874.53;5011833;28;20405;-80
2020/12/27 01:29:53;;;;;;;13.63;6.90;;;;;;;4.36;72.77;93877.44;5011565;28;20044;-79
2020/12/27 01:32:18;;;;;;;13.93;6.03;;;;;;;4.40;73.22;93873.19;5013353;28;20026;-75
2020/12/27 01:34:45;;;;;;;18.67;6.57;;;;;;;4.43;73.56;93882.41;5012553;28;20464;-75
2020/12/27 01:37:10;;;;;;;17.17;6.15;;;;;;;4.46;73.76;93876.59;5011694;28;20049;-75
2020/12/27 01:39:36;;;;;;;9.40;5.22;;;;;;;4.48;73.64;93871.84;5012075;28;20029;-74
2020/12/27 01:42:01;;;;;;;9.65;5.07;;;;;;;4.50;73.30;93863.63;5011789;28;20512;-76
2020/12/27 01:44:27;;;;;;;10.77;4.10;;;;;;;4.53;73.20;93858.59;5011829;28;20042;-75
2020/12/27 01:46:52;;;;;;;6.82;3.85;;;;;;;4.55;72.92;93858.31;5013092;28;20026;-75
2020/12/27 01:49:19;;;;;;;7.25;3.90;;;;;;;4.58;72.68;93853.28;5012893;28;20033;-75
2020/12/27 01:51:45;;;;;;;9.25;4.18;;;;;;;4.59;72.33;93854.84;5011651;28;20088;-75
2020/12/27 01:54:10;;;;;;;6.82;4.35;;;;;;;4.59;72.34;93846.94;5011468;28;20485;-75
2020/12/27 01:56:41;;;;;;;8.15;3.95;;;;;;;4.60;72.67;93842.47;5011706;28;20486;-75
2020/12/27 01:59:17;;;;;;;6.85;3.85;;;;;;;4.60;72.43;93847.75;5011284;28;20057;-75
2020/12/27 02:01:44;;;;;;;8.00;4.22;;;;;;;4.62;72.51;93854.31;5011375;28;20034;-75
2020/12/27 02:04:11;;;;;;;8.52;4.55;;;;;;;4.63;72.42;93849.81;5011282;28;20061;-75
2020/12/27 02:06:40;;;;;;;9.45;5.03;;;;;;;4.65;72.60;93852.19;5011344;28;20544;-75
2020/12/27 02:09:07;;;;;;;5.88;4.00;;;;;;;4.68;72.61;93839.22;5011473;28;20052;-75
2020/12/27 02:11:32;;;;;;;8.93;4.88;;;;;;;4.68;72.48;93835.78;5012572;28;20099;-75
2020/12/27 02:13:58;;;;;;;9.38;4.22;;;;;;;4.69;72.51;93821.53;5010843;28;20034;-75
2020/12/27 02:16:26;;;;;;;7.20;3.78;;;;;;;4.71;72.58;93820.19;5010166;28;20482;-75
2020/12/27 02:19:01;;;;;;;9.23;4.25;;;;;;;4.72;72.43;93826.25;5012405;28;20034;-75
2020/12/27 02:21:27;;;;;;;7.22;3.80;;;;;;;4.76;72.83;93821.97;5011779;28;20088;-74
2020/12/27 02:23:59;;;;;;;16.85;3.95;;;;;;;4.76;72.61;93827.25;5010962;28;20028;-75
2020/12/27 02:26:26;;;;;;;6.60;3.72;;;;;;;4.76;72.33;93822.78;5009689;28;20413;-75
2020/12/27 02:28:53;;;;;;;12.38;4.22;;;;;;;4.76;72.32;93821.97;5011090;28;20449;-75
2020/12/27 02:31:28;;;;;;;7.82;4.10;;;;;;;4.79;72.30;93813.53;5012144;28;20026;-75
2020/12/27 02:33:54;;;;;;;6.35;4.22;;;;;;;4.79;72.11;93814.31;5010954;28;20022;-75
2020/12/27 02:36:20;;;;;;;9.18;4.70;;;;;;;4.82;72.14;93815.59;5010779;28;20409;-75
2020/12/27 02:38:46;;;;;;;7.95;4.40;;;;;;;4.80;72.14;93820.38;5010902;28;20037;-75
2020/12/27 02:41:18;;;;;;;9.23;5.57;;;;;;;4.81;72.22;93804.25;5010986;28;20504;-75
2020/12/27 02:43:44;;;;;;;8.27;5.28;;;;;;;4.82;72.25;93794.47;5011947;28;20045;-75
2020/12/27 02:46:25;;;;;;;8.88;4.85;;;;;;;4.82;72.44;93803.19;5011925;28;20092;-75
2020/12/27 02:48:51;;;;;;;15.07;5.32;;;;;;;4.85;72.67;93795.78;4996240;28;20057;-75
2020/12/27 02:51:21;;;;;;;8.13;5.30;;;;;;;4.83;72.61;93802.13;5010722;28;20091;-75
2020/12/27 02:53:50;;;;;;;10.35;5.63;;;;;;;4.87;72.58;93812.91;5010821;28;20569;-75
2020/12/27 02:56:17;;;;;;;13.73;6.03;;;;;;;4.89;72.52;93802.88;5010373;28;20088;-75
2020/12/27 02:58:43;;;;;;;12.57;6.80;;;;;;;4.88;72.73;93797.84;5011644;28;20113;-75
2020/12/27 03:01:08;;;;;;;14.60;7.05;;;;;;;4.85;72.78;93790.50;5010282;28;20105;-75
2020/12/27 03:03:34;;;;;;;14.82;7.68;;;;;;;4.86;72.62;93790.19;5010163;28;20171;-75
2020/12/27 03:05:59;;;;;;;12.90;7.30;;;;;;;4.85;72.82;93787.88;5010676;28;20030;-75
2020/12/27 03:08:25;;;;;;;14.38;7.45;;;;;;;4.82;72.98;93790.00;5010154;28;20040;-77
2020/12/27 03:10:50;;;;;;;19.83;9.32;;;;;;;4.78;73.30;93793.44;5010392;28;20022;-75
2020/12/27 03:13:15;;;;;;;20.55;9.68;;;;;;;4.77;73.48;93789.25;5011598;28;20030;-75
2020/12/27 03:15:41;;;;;;;15.82;8.50;;;;;;;4.78;73.74;93793.44;5009988;28;20509;-75
2020/12/27 03:18:06;;;;;;;13.35;8.18;;;;;;;4.78;73.47;93798.72;5010413;28;20038;-75
2020/12/27 03:20:32;;;;;;;17.58;8.02;;;;;;;4.76;73.64;93795.56;5009931;28;20021;-75
2020/12/27 03:22:57;;;;;;;14.50;8.15;;;;;;;4.79;73.60;93789.75;5011560;28;20108;-75
2020/12/27 03:25:23;;;;;;;16.67;9.20;;;;;;;4.77;73.74;93786.59;5009955;28;20026;-75
2020/12/27 03:27:48;;;;;;;20.50;8.95;;;;;;;4.78;73.75;93788.97;5011078;28;20132;-75
2020/12/27 03:30:14;;;;;;;16.65;9.27;;;;;;;4.80;73.75;93788.69;5010019;28;20034;-76
2020/12/27 03:32:39;;;;;;;18.45;8.75;;;;;;;4.77;73.82;93791.88;5011208;28;20469;-75
2020/12/27 03:35:05;;;;;;;19.80;9.32;;;;;;;4.77;74.02;93797.94;5009961;28;20053;-75
2020/12/27 03:37:35;;;;;;;18.65;9.38;;;;;;;4.78;73.52;93796.09;5009779;28;20025;-75
2020/12/27 03:40:05;;;;;;;16.90;8.93;;;;;;;4.78;74.16;93793.44;5010002;28;20022;-75
2020/12/27 03:42:30;;;;;;;15.25;9.25;;;;;;;4.84;74.23;93792.34;5011248;28;20441;-75
2020/12/27 03:44:56;;;;;;;16.30;9.38;;;;;;;4.84;74.14;93787.06;5009562;28;20045;-75
2020/12/27 03:47:21;;;;;;;19.10;10.73;;;;;;;4.85;74.33;93785.22;5009943;28;20033;-75
2020/12/27 03:49:47;;;;;;;17.15;9.40;;;;;;;4.86;74.29;93779.63;5011093;28;20064;-75
2020/12/27 03:52:12;;;;;;;16.88;9.90;;;;;;;4.89;74.35;93770.41;5010079;28;20179;-75
2020/12/27 03:54:38;;;;;;;18.55;10.07;;;;;;;4.91;74.35;93774.31;5009617;28;20026;-75
2020/12/27 03:57:03;;;;;;;24.30;11.20;;;;;;;4.92;74.39;93785.66;5011122;28;20048;-75
2020/12/27 03:59:29;;;;;;;23.92;11.10;;;;;;;4.90;74.52;93779.88;5009780;28;20033;-75
2020/12/27 04:01:54;;;;;;;16.30;10.57;;;;;;;4.92;74.61;93777.75;5009618;28;20127;-75
2020/12/27 04:04:20;;;;;;;17.95;9.60;;;;;;;4.92;74.76;93775.88;5009936;28;20037;-75
2020/12/27 04:06:45;;;;;;;25.70;11.32;;;;;;;4.94;74.53;93780.91;5009568;28;20018;-75
2020/12/27 04:09:11;;;;;;;21.40;12.10;;;;;;;4.93;74.68;93774.06;5010811;28;20124;-75
2020/12/27 04:11:36;;;;;;;22.77;12.80;;;;;;;4.96;74.64;93773.47;5010884;28;20100;-75
2020/12/27 04:14:02;;;;;;;22.25;13.13;;;;;;;4.98;74.68;93777.41;5011060;28;20026;-75
2020/12/27 04:16:28;;;;;;;24.35;10.95;;;;;;;5.01;74.70;93776.09;5011048;28;20025;-75
2020/12/27 04:18:53;;;;;;;19.95;9.65;;;;;;;5.01;74.53;93766.28;5009432;28;20032;-75
2020/12/27 04:21:19;;;;;;;17.02;9.63;;;;;;;5.02;74.69;93775.78;5010825;28;20018;-75
2020/12/27 04:23:44;;;;;;;14.98;8.70;;;;;;;5.02;74.87;93770.50;5009374;28;20029;-75
2020/12/27 04:26:14;;;;;;;14.75;9.02;;;;;;;5.06;74.68;93780.53;5009688;28;20049;-75
2020/12/27 04:28:39;;;;;;;16.55;10.02;;;;;;;5.07;74.94;93774.97;5009381;28;20105;-75
2020/12/27 04:31:05;;;;;;;19.10;9.65;;;;;;;5.08;74.85;93775.75;5009375;28;20057;-75
2020/12/27 04:33:30;;;;;;;15.48;8.70;;;;;;;5.12;74.70;93774.91;5009498;28;20489;-75
2020/12/27 04:35:56;;;;;;;20.35;9.23;;;;;;;5.14;74.78;93777.25;5010546;28;20057;-75
2020/12/27 04:38:21;;;;;;;15.55;9.05;;;;;;;5.16;74.77;93781.19;5010631;28;20033;-75
2020/12/27 04:40:47;;;;;;;15.93;8.88;;;;;;;5.14;74.89;93780.69;5014290;28;20026;-75
2020/12/27 04:43:14;;;;;;;11.55;7.05;;;;;;;5.17;75.06;93768.75;5014263;28;20050;-75
2020/12/27 04:45:40;;;;;;;15.02;8.43;;;;;;;5.19;75.18;93775.38;5013025;28;20022;-75
2020/12/27 04:48:06;;;;;;;13.52;7.68;;;;;;;5.21;75.23;93775.88;5014041;28;20409;-75
2020/12/27 04:50:32;;;;;;;17.10;8.68;;;;;;;5.23;75.26;93772.91;5014089;28;20041;-75
2020/12/27 04:52:59;;;;;;;12.85;7.07;;;;;;;5.26;75.02;93777.66;5012776;28;20088;-75
2020/12/27 04:55:24;;;;;;;15.55;7.85;;;;;;;5.25;75.22;93770.81;5014046;28;20033;-75
2020/12/27 04:57:51;;;;;;;16.33;8.15;;;;;;;5.26;75.14;93766.31;5012481;28;20508;-75
2020/12/27 05:00:21;;;;;;;15.10;7.93;;;;;;;5.27;75.16;93773.97;5002131;28;20503;-75
2020/12/27 05:02:47;;;;;;;15.23;7.32;;;;;;;5.28;75.47;93772.88;5012676;28;20481;-75
2020/12/27 05:05:13;;;;;;;15.13;7.88;;;;;;;5.30;75.25;93772.59;5012739;28;20037;-75
2020/12/27 05:07:43;;;;;;;15.30;7.65;;;;;;;5.32;75.35;93773.13;5013851;28;20030;-75
2020/12/27 05:10:12;;;;;;;14.80;6.75;;;;;;;5.35;75.05;93770.69;5013726;28;20065;-75
2020/12/27 05:12:37;;;;;;;11.77;6.38;;;;;;;5.38;74.92;93772.75;5012654;28;20025;-75
2020/12/27 05:15:07;;;;;;;8.90;5.15;;;;;;;5.43;74.89;93767.44;5012226;28;20030;-75
2020/12/27 05:17:32;;;;;;;12.00;5.97;;;;;;;5.48;74.78;93768.44;5013712;28;20029;-75
2020/12/27 05:20:05;;;;;;;12.13;4.88;;;;;;;5.49;74.43;93772.66;5012025;28;20505;-75
2020/12/27 05:22:32;;;;;;;9.55;5.55;;;;;;;5.50;74.38;93774.22;5012352;28;20055;-75
2020/12/27 05:24:57;;;;;;;10.30;5.00;;;;;;;5.45;74.47;93771.63;5012171;28;20026;-76
2020/12/27 05:27:24;;;;;;;11.65;5.65;;;;;;;5.40;74.47;93778.56;5012122;28;20410;-75
2020/12/27 05:29:49;;;;;;;11.13;5.75;;;;;;;5.40;74.66;93778.56;5013407;28;20034;-75
2020/12/27 05:32:15;;;;;;;9.02;5.03;;;;;;;5.39;74.92;93766.41;5011981;28;20084;-75
2020/12/27 05:34:40;;;;;;;9.70;5.18;;;;;;;5.38;75.05;93767.47;5011961;28;20025;-75
2020/12/27 05:37:07;;;;;;;14.15;5.70;;;;;;;5.38;75.14;93775.41;5011914;28;20145;-76
2020/12/27 05:39:32;;;;;;;10.63;6.10;;;;;;;5.36;75.46;93769.63;5013259;28;20030;-75
2020/12/27 05:42:06;;;;;;;8.50;4.72;;;;;;;5.34;75.09;93769.09;5011959;28;20030;-75
2020/12/27 05:44:34;;;;;;;9.65;4.35;;;;;;;5.31;75.13;93764.41;5002722;28;20045;-75
2020/12/27 05:47:01;;;;;;;9.95;5.03;;;;;;;5.32;75.47;93768.59;5011743;28;20021;-75
2020/12/27 05:49:26;;;;;;;8.60;4.43;;;;;;;5.35;75.30;93767.25;5011226;28;20091;-75
2020/12/27 05:51:57;;;;;;;10.27;5.00;;;;;;;5.32;75.40;93757.25;5013003;28;20014;-75
2020/12/27 05:54:30;;;;;;;10.52;5.20;;;;;;;5.30;75.32;93754.88;5011491;28;20060;-75
2020/12/27 05:56:58;;;;;;;9.93;4.57;;;;;;;5.29;75.27;93750.69;5011528;28;20034;-75
2020/12/27 05:59:32;;;;;;;8.05;4.13;;;;;;;5.29;75.62;93752.53;5011371;28;20034;-75
2020/12/27 06:01:58;;;;;;;10.73;4.20;;;;;;;5.25;75.74;93752.31;5011380;28;20566;-76
2020/12/27 06:04:50;;;;;;;11.27;3.58;;;;;;;5.26;75.77;93755.75;5012687;28;20034;-75
2020/12/27 06:07:37;;;;;;;6.13;3.45;;;;;;;5.18;75.95;93759.78;4977025;28;20101;-75
2020/12/27 06:10:20;;;;;;;8.93;4.38;;;;;;;5.15;75.94;93760.31;5011316;28;20038;-76
2020/12/27 06:13:20;;;;;;;7.68;4.43;;;;;;;5.09;76.17;93753.53;5000411;28;20375;-75
2020/12/27 06:15:47;;;;;;;10.63;5.40;;;;;;;5.13;76.55;93767.75;5011312;28;20040;-75
2020/12/27 06:18:14;;;;;;;12.07;4.97;;;;;;;5.08;76.48;93759.88;5012523;28;20493;-76
2020/12/27 06:20:44;;;;;;;9.45;4.55;;;;;;;5.11;76.65;93749.56;5012617;28;20036;-75
2020/12/27 06:23:11;;;;;;;10.30;5.05;;;;;;;5.09;76.47;93756.16;5011057;28;20468;-77
2020/12/27 06:25:38;;;;;;;9.38;5.07;;;;;;;5.10;76.50;93763.81;5012504;28;20029;-75
2020/12/27 06:28:05;;;;;;;14.65;4.32;;;;;;;5.12;76.79;93768.84;5010988;28;20466;-75
2020/12/27 06:30:40;;;;;;;11.35;5.03;;;;;;;5.12;76.52;93760.91;5010890;28;20073;-76
2020/12/27 06:33:20;;;;;;;10.95;4.45;;;;;;;5.08;76.46;93763.31;5010755;28;20076;-75
2020/12/27 06:35:46;;;;;;;10.07;4.85;;;;;;;5.05;77.02;93768.38;5012203;28;20108;-75
2020/12/27 06:38:23;;;;;;;10.85;4.90;;;;;;;5.05;77.09;93763.09;5012203;28;20053;-75
2020/12/27 06:41:03;;;;;;;10.10;4.75;;;;;;;5.00;76.89;93748.84;5003218;28;20021;-75
2020/12/27 06:43:29;;;;;;;12.55;5.07;;;;;;;5.00;77.22;93742.78;5008095;28;20476;-75
2020/12/27 06:46:14;;;;;;;10.35;4.72;;;;;;;4.96;76.98;93732.00;5010748;28;20037;-75
2020/12/27 06:48:40;;;;;;;9.45;5.22;;;;;;;4.97;77.31;93743.38;5000025;28;20034;-75
2020/12/27 06:51:05;;;;;;;12.32;5.10;;;;;;;4.93;77.12;93737.84;5010859;28;20559;-75
2020/12/27 06:53:41;;;;;;;13.05;4.68;;;;;;;4.89;77.14;93750.03;5011673;28;20061;-75
2020/12/27 06:56:09;;;;;;;8.55;5.07;;;;;;;4.85;77.20;93743.75;5010664;28;20033;-75
2020/12/27 06:58:35;;;;;;;11.85;4.72;;;;;;;4.84;77.39;93755.38;5010386;28;20440;-75
2020/12/27 07:01:15;;;;;;;7.88;4.28;;;;;;;4.85;77.51;93737.69;5011119;28;20030;-75
2020/12/27 07:03:42;;;;;;;10.63;5.35;;;;;;;4.89;77.43;93742.13;5010410;28;20080;-75
2020/12/27 07:06:18;;;;;;;10.52;5.22;;;;;;;4.91;77.27;93747.91;5010462;28;20029;-75
2020/12/27 07:08:44;;;;;;;11.57;5.82;;;;;;;4.86;77.28;93747.94;5010240;28;20056;-75
2020/12/27 07:11:16;;;;;;;12.35;5.30;;;;;;;4.90;77.31;93750.81;5011132;28;20033;-79
2020/12/27 07:13:46;;;;;;;10.13;5.40;;;;;;;4.92;77.44;93749.47;5009812;28;20057;-79
2020/12/27 07:16:16;;;;;;;9.90;5.43;;;;;;;4.95;77.32;93746.28;5009541;28;20057;-79
2020/12/27 07:18:48;;;;;;;14.68;5.53;;;;;;;5.05;76.96;93755.16;5009987;28;20029;-79
2020/12/27 07:21:19;;;;;;;15.47;5.70;;;;;;;5.03;76.88;93748.31;5009463;28;20036;-79
2020/12/27 07:24:09;;;;;;;10.50;5.38;;;;;;;5.01;77.08;93739.88;5009593;28;20269;-79
2020/12/27 07:26:39;;;;;;;9.77;5.65;;;;;;;5.04;76.87;93727.97;5010877;28;20404;-79
2020/12/27 07:29:10;;;;;;;8.77;5.57;;;;;;;5.00;77.21;93730.38;5009307;28;20034;-79
2020/12/27 07:31:37;;;;;;;10.65;5.90;;;;;;;4.97;77.63;93736.22;5011000;28;20036;-79
2020/12/27 07:34:04;;;;;;;9.15;5.32;;;;;;;4.98;77.45;93729.84;5009241;28;20091;-79
2020/12/27 07:36:32;;;;;;;10.88;6.45;;;;;;;4.98;77.58;93726.44;5010797;28;20025;-79
2020/12/27 07:39:08;;;;;;;13.82;6.30;;;;;;;5.04;77.47;93735.88;5009650;28;20052;-79
2020/12/27 07:41:40;;;;;;;11.07;6.20;;;;;;;5.13;77.52;93739.50;4996523;28;20033;-79
2020/12/27 07:44:15;;;;;;;;;;;;;;;5.16;76.76;93735.50;5009479;28;20050;-79
2020/12/27 07:46:44;;;;;;;11.75;6.00;;;;;;;5.18;76.68;93710.34;5010881;28;19921;-79
2020/12/27 07:49:13;;;;;;;14.10;5.70;;;;;;;5.20;76.86;93710.09;5009134;28;20055;-79
2020/12/27 07:51:39;;;;;;;9.27;6.00;;;;;;;5.27;76.87;93715.81;5009688;28;20135;-80
2020/12/27 07:54:07;;;;;;;11.07;5.95;;;;;;;5.35;76.56;93725.75;5009580;28;20073;-79
2020/12/27 07:56:33;;;;;;;11.73;5.68;;;;;;;5.48;76.17;93720.84;5009201;28;20026;-80
2020/12/27 07:59:00;;;;;;;13.50;5.78;;;;;;;5.55;75.58;93713.34;5009567;28;20474;-80
2020/12/27 08:01:29;;;;;;;9.93;5.70;;;;;;;5.63;75.33;93718.00;5010638;28;20503;-80
2020/12/27 08:03:57;;;;;;;14.90;5.53;;;;;;;5.67;74.95;93720.88;5010998;28;20033;-80
2020/12/27 08:06:24;;;;;;;9.98;6.13;;;;;;;5.69;75.11;93713.44;5009214;28;20036;-80
2020/12/27 08:09:03;;;;;;;10.02;6.45;;;;;;;5.69;75.23;93714.22;5009585;28;20030;-80
2020/12/27 08:11:30;;;;;;;13.43;6.45;;;;;;;5.71;75.37;93724.50;5009200;28;20057;-80
2020/12/27 08:13:58;;;;;;;10.15;5.88;;;;;;;5.75;75.76;93713.06;5011455;28;20033;-80
2020/12/27 08:16:24;;;;;;;9.35;5.28;;;;;;;5.86;75.58;93707.63;5012810;28;20034;-79
2020/12/27 08:19:12;;;;;;;10.35;5.28;;;;;;;5.94;75.89;93689.28;5014617;28;20036;-80
2020/12/27 08:21:42;;;;;;;11.05;5.35;;;;;;;6.01;75.92;93692.34;5012958;28;20037;-80
2020/12/27 08:24:10;;;;;;;11.93;5.15;;;;;;;6.12;76.07;93682.41;5013307;28;20088;-80
2020/12/27 08:26:38;;;;;;;8.88;4.68;;;;;;;6.30;76.18;93685.31;5012869;28;20041;-80
2020/12/27 08:29:18;;;;;;;8.13;4.15;;;;;;;6.36;75.57;93690.22;5014771;28;20489;-77
2020/12/27 08:31:46;;;;;;;8.02;3.55;;;;;;;6.43;75.49;93681.88;5013670;28;20017;-77
2020/12/27 08:34:14;;;;;;;6.93;3.83;;;;;;;6.48;75.57;93692.41;5013543;28;20026;-77
2020/12/27 08:36:44;;;;;;;6.35;3.17;;;;;;;6.60;75.21;93687.44;5012983;28;20060;-77
2020/12/27 08:39:43;;;;;;;6.25;3.53;;;;;;;6.80;74.79;93690.81;5013426;28;20038;-77
2020/12/27 08:42:36;;;;;;;6.88;3.70;;;;;;;6.89;74.17;93680.31;5003751;28;20409;-77
2020/12/27 08:45:03;;;;;;;9.43;4.40;;;;;;;6.97;73.74;93677.75;5001489;28;20099;-77
2020/12/27 08:47:45;;;;;;;12.00;4.68;;;;;;;7.09;73.54;93673.84;5012911;28;20026;-77
2020/12/27 08:50:22;;;;;;;8.73;4.25;;;;;;;7.14;73.10;93682.44;5013368;28;20124;-77
2020/12/27 08:52:50;;;;;;;9.85;6.05;;;;;;;7.25;72.44;93677.75;5013021;28;20038;-77
2020/12/27 08:55:23;;;;;;;10.43;5.85;;;;;;;7.25;72.31;93685.69;5012995;28;20029;-77
2020/12/27 08:57:49;;;;;;;13.02;6.03;;;;;;;7.22;71.90;93686.28;5014420;28;20018;-77
2020/12/27 09:03:42;;;;;;;11.68;6.68;;;;;;;7.17;72.58;93678.44;5010960;28;20056;-77
2020/12/27 09:06:12;;;;;;;12.57;6.65;;;;;;;7.19;72.28;93679.72;5013042;28;20029;-77
2020/12/27 09:08:38;;;;;;;11.93;6.57;;;;;;;7.22;71.89;93694.22;5012871;28;20030;-77
2020/12/27 09:11:03;;;;;;;8.52;5.75;;;;;;;7.23;71.93;93690.53;5013424;28;20056;-77
2020/12/27 09:13:38;;;;;;;13.30;5.38;;;;;;;7.32;71.66;93675.47;5012755;28;20028;-77
2020/12/27 09:16:04;;;;;;;9.70;5.18;;;;;;;7.33;71.37;93671.75;5012873;28;20034;-77
2020/12/27 09:18:32;;;;;;;10.93;6.05;;;;;;;7.31;70.98;93679.22;5012890;28;20099;-77
2020/12/27 09:20:59;;;;;;;13.77;6.95;;;;;;;7.27;71.27;93682.75;5014057;28;20405;-77
2020/12/27 09:23:25;;;;;;;10.45;6.30;;;;;;;7.27;71.59;93666.84;5012252;28;20512;-77
2020/12/27 09:26:08;;;;;;;11.57;6.18;;;;;;;7.28;71.55;93652.50;5012406;28;20513;-77
2020/12/27 09:28:36;;;;;;;8.15;4.85;;;;;;;7.32;71.87;93648.19;5012392;28;20073;-77
2020/12/27 09:31:07;;;;;;;12.50;4.53;;;;;;;7.33;71.40;93639.94;5013660;28;20105;-77
2020/12/27 09:33:42;;;;;;;11.17;5.43;;;;;;;7.35;71.69;93632.47;5012213;28;20041;-77
2020/12/27 09:36:10;;;;;;;10.05;5.30;;;;;;;7.43;71.15;93634.41;5012259;28;20034;-77
2020/12/27 09:38:40;;;;;;;6.10;4.13;;;;;;;7.40;71.17;93619.09;5013610;28;20088;-77
2020/12/27 09:41:17;;;;;;;7.32;4.38;;;;;;;7.39;70.73;93612.22;5012488;28;20025;-77
2020/12/27 09:43:59;;;;;;;7.38;4.50;;;;;;;7.38;71.20;93613.31;5012018;28;20141;-77
2020/12/27 09:46:47;;;;;;;7.60;4.37;;;;;;;7.38;71.17;93615.19;5012335;28;20029;-77
2020/12/27 09:49:24;;;;;;;11.07;3.97;;;;;;;7.21;71.47;93605.19;5009830;28;20821;-77
2020/12/27 09:52:12;;;;;;;6.82;4.03;;;;;;;7.17;72.43;93589.09;5011952;28;20038;-77
2020/12/27 09:54:42;;;;;;;5.78;3.03;;;;;;;7.15;72.00;93593.13;5000192;28;20111;-77
2020/12/27 09:57:20;;;;;;;6.55;2.70;;;;;;;7.15;72.58;93590.50;5012824;28;20030;-77
2020/12/27 09:59:47;;;;;;;9.00;2.33;;;;;;;7.22;72.05;93596.97;5012060;28;20037;-77
2020/12/27 10:02:13;;;;;;;6.22;2.65;;;;;;;7.23;72.08;93587.91;5011528;28;20083;-77
2020/12/27 10:04:39;;;;;;;4.65;3.03;;;;;;;7.26;71.85;93572.50;5012046;28;20386;-77
2020/12/27 10:07:05;;;;;;;4.53;2.15;;;;;;;7.29;72.33;93570.03;5011696;28;20585;-77
2020/12/27 10:09:31;;;;;;;5.22;2.80;;;;;;;7.47;72.21;93576.28;5013286;28;20458;-77
2020/12/27 10:11:57;;;;;;;4.65;2.33;;;;;;;7.62;72.06;93572.47;5011740;28;20481;-77
2020/12/27 10:14:22;;;;;;;4.10;1.98;;;;;;;7.76;71.54;93569.78;5012499;28;20093;-77
2020/12/27 10:16:48;;;;;;;4.68;1.83;;;;;;;7.90;70.87;93578.44;5012814;28;20030;-77
2020/12/27 10:19:13;;;;;;;5.25;2.20;;;;;;;7.97;70.12;93573.47;5011747;28;20025;-77
2020/12/27 10:21:39;;;;;;;4.75;2.28;;;;;;;8.00;70.25;93594.13;5011384;28;20065;-77
2020/12/27 10:24:04;;;;;;;7.65;2.60;;;;;;;7.95;70.51;93588.16;5011279;28;20528;-77
2020/12/27 10:26:30;;;;;;;5.95;2.85;;;;;;;7.94;70.38;93587.38;5011264;28;20104;-77
2020/12/27 10:28:56;;;;;;;4.63;2.15;;;;;;;7.95;69.93;93575.66;5011632;28;20043;-77
2020/12/27 10:31:21;;;;;;;4.57;2.17;;;;;;;7.95;70.16;93556.31;5011536;28;20413;-77
2020/12/27 10:33:47;;;;;;;5.57;2.70;;;;;;;7.92;70.14;93552.41;5011127;28;20034;-77
2020/12/27 10:36:12;;;;;;;5.78;2.03;;;;;;;7.92;70.15;93559.56;5011641;28;20034;-77
2020/12/27 10:38:38;;;;;;;4.85;1.95;;;;;;;7.89;70.05;93554.84;5011332;28;20025;-77
2020/12/27 10:41:04;;;;;;;4.72;1.98;;;;;;;7.82;70.38;93550.00;5011053;28;20038;-77
2020/12/27 10:43:29;;;;;;;4.20;1.80;;;;;;;7.80;70.36;93546.84;5012365;28;20050;-77
2020/12/27 10:46:03;;;;;;;2.38;1.48;;;;;;;7.78;69.97;93539.19;5012332;28;20489;-77
2020/12/27 10:48:30;;;;;;;7.10;1.63;;;;;;;7.80;69.93;93546.84;5012254;28;20032;-77
2020/12/27 10:50:55;;;;;;;3.15;1.45;;;;;;;7.83;69.72;93531.09;5012208;28;20044;-77
2020/12/27 10:53:21;;;;;;;2.40;1.20;;;;;;;7.87;70.10;93530.50;5010647;28;20033;-77
2020/12/27 10:55:47;;;;;;;4.95;1.90;;;;;;;7.97;70.02;93524.94;5010962;28;20571;-77
2020/12/27 10:58:13;;;;;;;2.75;1.45;;;;;;;8.02;69.45;93522.94;5010616;28;20054;-77
2020/12/27 11:00:39;;;;;;;6.65;1.88;;;;;;;7.99;69.65;93507.63;5012320;28;20525;-77
2020/12/27 11:03:04;;;;;;;6.47;1.90;;;;;;;7.95;69.77;93497.91;5011959;28;20029;-77
2020/12/27 11:05:30;;;;;;;4.55;2.15;;;;;;;7.96;69.96;93505.59;5011995;28;20034;-77
2020/12/27 11:07:55;;;;;;;7.72;3.03;;;;;;;8.02;69.38;93506.25;5010842;28;20022;-77
2020/12/27 11:10:20;;;;;;;5.70;2.67;;;;;;;8.04;69.89;93502.19;5010713;28;20505;-77
2020/12/27 11:12:46;;;;;;;4.82;2.42;;;;;;;8.09;69.39;93485.34;5010457;28;20477;-77
2020/12/27 11:15:11;;;;;;;5.32;2.42;;;;;;;8.12;68.90;93476.78;5011936;28;20037;-77
2020/12/27 11:17:37;;;;;;;5.05;2.75;;;;;;;8.07;69.34;93470.81;5011563;28;20026;-77
2020/12/27 11:20:03;;;;;;;5.32;2.50;;;;;;;8.06;69.29;93470.03;5010389;28;20025;-77
2020/12/27 11:22:29;;;;;;;6.13;3.17;;;;;;;7.98;68.36;93460.94;5011468;28;20025;-77
2020/12/27 11:24:54;;;;;;;4.78;2.33;;;;;;;8.00;68.14;93463.31;5010394;28;20478;-77
2020/12/27 11:27:20;;;;;;;7.50;2.45;;;;;;;7.98;68.26;93455.63;5010092;28;20124;-77
2020/12/27 11:29:45;;;;;;;5.32;2.08;;;;;;;8.01;67.93;93446.28;5010272;28;20405;-77
2020/12/27 11:32:11;;;;;;;3.63;1.88;;;;;;;7.99;68.44;93435.19;5010212;28;20077;-77
2020/12/27 11:34:36;;;;;;;3.95;1.70;;;;;;;7.98;67.95;93417.72;5010209;28;20124;-77
2020/12/27 11:37:02;;;;;;;5.28;1.83;;;;;;;7.98;67.69;93410.53;5011517;28;20069;-77
2020/12/27 11:39:27;;;;;;;4.82;1.85;;;;;;;7.99;67.73;93412.06;5009817;28;20037;-77
2020/12/27 11:41:53;;;;;;;6.35;2.22;;;;;;;7.99;67.58;93409.41;5011413;28;20029;-77
2020/12/27 11:44:18;;;;;;;2.95;1.30;;;;;;;7.98;67.48;93399.13;5009904;28;20480;-77
2020/12/27 11:46:44;;;;;;;3.80;1.90;;;;;;;8.06;67.79;93395.72;5009621;28;20088;-77